sensor_id;sensor_type;location;lat;lon;timestamp;temperature;humidity
23124;DHT22;11731;48.592;8.858;2022-12-10T00:20:27;4.70;99.90
23124;DHT22;11731;48.592;8.858;2022-12-10T00:22:54;4.80;99.90
23124;DHT22;11731;48.592;8.858;2022-12-10T00:25:21;5.00;99.90
23124;DHT22;11731;48.592;8.858;2022-12-10T00:28:02;4.60;99.90
23124;DHT22;11731;48.592;8.858;2022-12-10T00:30:32;4.20;99.90
23124;DHT22;11731;48.592;8.858;2022-12-10T00:33:06;3.80;99.90
23124;DHT22;11731;48.592;8.858;2022-12-10T00:35:45;3.60;99.90
23124;DHT22;11731;48.592;8.858;2022-12-10T00:38:19;3.70;99.90
23124;DHT22;11731;48.592;8.858;2022-12-10T00:40:47;3.50;99.90
23124;DHT22;11731;48.592;8.858;2022-12-10T00:43:14;3.50;99.90
23124;DHT22;11731;48.592;8.858;2022-12-10T00:45:55;3.80;99.90
23124;DHT22;11731;48.592;8.858;2022-12-10T00:48:22;4.20;99.90
23124;DHT22;11731;48.592;8.858;2022-12-10T00:50:59;4.30;99.90
23124;DHT22;11731;48.592;8.858;2022-12-10T00:53:28;4.30;99.90
23124;DHT22;11731;48.592;8.858;2022-12-10T00:55:59;4.20;99.90
23124;DHT22;11731;48.592;8.858;2022-12-10T00:58:30;4.30;99.90
23124;DHT22;11731;48.592;8.858;2022-12-10T01:01:09;4.40;99.90
23124;DHT22;11731;48.592;8.858;2022-12-10T01:03:36;4.40;99.90
23124;DHT22;11731;48.592;8.858;2022-12-10T01:06:20;4.40;99.90
23124;DHT22;11731;48.592;8.858;2022-12-10T01:08:49;4.30;99.90
23124;DHT22;11731;48.592;8.858;2022-12-10T01:11:18;4.40;99.90
23124;DHT22;11731;48.592;8.858;2022-12-10T01:13:46;4.20;99.90
23124;DHT22;11731;48.592;8.858;2022-12-10T01:16:17;4.10;99.90
23124;DHT22;11731;48.592;8.858;2022-12-10T01:18:44;4.00;99.90
23124;DHT22;11731;48.592;8.858;2022-12-10T01:21:16;4.20;99.90
23124;DHT22;11731;48.592;8.858;2022-12-10T01:24:42;4.40;99.90
23124;DHT22;11731;48.592;8.858;2022-12-10T01:26:53;4.50;99.90
23124;DHT22;11731;48.592;8.858;2022-12-10T01:38:50;4.30;99.90
23124;DHT22;11731;48.592;8.858;2022-12-10T01:41:22;4.20;99.90
23124;DHT22;11731;48.592;8.858;2022-12-10T01:43:54;4.20;99.90
23124;DHT22;11731;48.592;8.858;2022-12-10T01:46:22;4.40;99.90
23124;DHT22;11731;48.592;8.858;2022-12-10T01:48:50;4.60;99.90
23124;DHT22;11731;48.592;8.858;2022-12-10T01:51:18;4.30;99.90
23124;DHT22;11731;48.592;8.858;2022-12-10T01:53:46;4.20;99.90
23124;DHT22;11731;48.592;8.858;2022-12-10T01:56:18;4.20;99.90
23124;DHT22;11731;48.592;8.858;2022-12-10T01:58:48;4.00;99.90
23124;DHT22;11731;48.592;8.858;2022-12-10T02:01:24;4.00;99.90
23124;DHT22;11731;48.592;8.858;2022-12-10T02:04:01;3.80;99.90
23124;DHT22;11731;48.592;8.858;2022-12-10T02:06:42;4.00;99.90
23124;DHT22;11731;48.592;8.858;2022-12-10T02:09:24;3.70;99.90
23124;DHT22;11731;48.592;8.858;2022-12-10T02:12:01;3.90;99.90
23124;DHT22;11731;48.592;8.858;2022-12-10T02:14:37;4.10;99.90
23124;DHT22;11731;48.592;8.858;2022-12-10T02:17:11;4.10;99.90
23124;DHT22;11731;48.592;8.858;2022-12-10T02:19:54;4.00;99.90
23124;DHT22;11731;48.592;8.858;2022-12-10T02:22:29;3.90;99.90
23124;DHT22;11731;48.592;8.858;2022-12-10T02:24:59;3.80;99.90
23124;DHT22;11731;48.592;8.858;2022-12-10T02:27:35;3.80;99.90
23124;DHT22;11731;48.592;8.858;2022-12-10T02:30:06;3.80;99.90
23124;DHT22;11731;48.592;8.858;2022-12-10T02:32:36;3.80;99.90
23124;DHT22;11731;48.592;8.858;2022-12-10T02:35:09;4.10;99.90
23124;DHT22;11731;48.592;8.858;2022-12-10T02:37:40;4.10;99.90
23124;DHT22;11731;48.592;8.858;2022-12-10T02:40:13;4.20;99.90
23124;DHT22;11731;48.592;8.858;2022-12-10T02:42:43;4.20;99.90
23124;DHT22;11731;48.592;8.858;2022-12-10T02:45:12;4.50;99.90
23124;DHT22;11731;48.592;8.858;2022-12-10T02:47:41;4.70;99.90
23124;DHT22;11731;48.592;8.858;2022-12-10T02:50:36;4.80;99.90
23124;DHT22;11731;48.592;8.858;2022-12-10T02:53:16;4.50;99.90
23124;DHT22;11731;48.592;8.858;2022-12-10T02:55:55;4.80;99.90
23124;DHT22;11731;48.592;8.858;2022-12-10T02:58:49;4.90;99.90
23124;DHT22;11731;48.592;8.858;2022-12-10T03:01:56;4.90;99.90
23124;DHT22;11731;48.592;8.858;2022-12-10T03:07:40;4.30;99.90
23124;DHT22;11731;48.592;8.858;2022-12-10T03:10:13;4.20;99.90
23124;DHT22;11731;48.592;8.858;2022-12-10T03:12:43;4.20;99.90
23124;DHT22;11731;48.592;8.858;2022-12-10T03:18:22;3.90;99.90
23124;DHT22;11731;48.592;8.858;2022-12-10T03:20:53;3.90;99.90
23124;DHT22;11731;48.592;8.858;2022-12-10T03:23:21;4.00;99.90
23124;DHT22;11731;48.592;8.858;2022-12-10T03:31:25;4.40;99.90
23124;DHT22;11731;48.592;8.858;2022-12-10T03:33:54;4.30;99.90
23124;DHT22;11731;48.592;8.858;2022-12-10T03:36:21;4.30;99.90
23124;DHT22;11731;48.592;8.858;2022-12-10T03:38:50;4.10;99.90
23124;DHT22;11731;48.592;8.858;2022-12-10T03:41:20;4.10;99.90
23124;DHT22;11731;48.592;8.858;2022-12-10T03:43:52;4.00;99.90
23124;DHT22;11731;48.592;8.858;2022-12-10T03:46:19;4.10;99.90
23124;DHT22;11731;48.592;8.858;2022-12-10T03:48:46;3.60;99.90
23124;DHT22;11731;48.592;8.858;2022-12-10T03:51:29;3.40;99.90
23124;DHT22;11731;48.592;8.858;2022-12-10T03:53:56;3.30;99.90
23124;DHT22;11731;48.592;8.858;2022-12-10T03:56:23;3.10;99.90
23124;DHT22;11731;48.592;8.858;2022-12-10T03:58:50;3.10;99.90
23124;DHT22;11731;48.592;8.858;2022-12-10T04:01:17;3.20;99.90
23124;DHT22;11731;48.592;8.858;2022-12-10T04:03:44;3.70;99.90
23124;DHT22;11731;48.592;8.858;2022-12-10T04:06:13;3.90;99.90
23124;DHT22;11731;48.592;8.858;2022-12-10T04:08:42;3.90;99.90
23124;DHT22;11731;48.592;8.858;2022-12-10T04:11:10;3.90;99.90
23124;DHT22;11731;48.592;8.858;2022-12-10T04:14:08;4.30;99.90
23124;DHT22;11731;48.592;8.858;2022-12-10T04:16:43;4.20;99.90
23124;DHT22;11731;48.592;8.858;2022-12-10T04:19:12;3.90;99.90
23124;DHT22;11731;48.592;8.858;2022-12-10T04:21:41;3.90;99.90
23124;DHT22;11731;48.592;8.858;2022-12-10T04:24:28;3.70;99.90
23124;DHT22;11731;48.592;8.858;2022-12-10T04:27:16;3.90;99.90
23124;DHT22;11731;48.592;8.858;2022-12-10T04:29:44;3.90;99.90
23124;DHT22;11731;48.592;8.858;2022-12-10T04:32:11;3.50;99.90
23124;DHT22;11731;48.592;8.858;2022-12-10T04:34:38;3.70;99.90
23124;DHT22;11731;48.592;8.858;2022-12-10T04:37:05;3.80;99.90
23124;DHT22;11731;48.592;8.858;2022-12-10T04:39:34;4.00;99.90
23124;DHT22;11731;48.592;8.858;2022-12-10T04:42:01;3.80;99.90
23124;DHT22;11731;48.592;8.858;2022-12-10T04:44:28;3.80;99.90
23124;DHT22;11731;48.592;8.858;2022-12-10T04:46:55;3.80;99.90
23124;DHT22;11731;48.592;8.858;2022-12-10T04:49:22;3.70;99.90
23124;DHT22;11731;48.592;8.858;2022-12-10T04:51:50;3.70;99.90
23124;DHT22;11731;48.592;8.858;2022-12-10T04:54:18;3.80;99.90
23124;DHT22;11731;48.592;8.858;2022-12-10T04:56:47;4.10;99.90
23124;DHT22;11731;48.592;8.858;2022-12-10T04:59:14;4.50;99.90
23124;DHT22;11731;48.592;8.858;2022-12-10T05:01:41;4.80;99.90
23124;DHT22;11731;48.592;8.858;2022-12-10T05:04:11;4.70;99.90
23124;DHT22;11731;48.592;8.858;2022-12-10T05:06:38;4.90;99.90
23124;DHT22;11731;48.592;8.858;2022-12-10T05:09:06;4.90;99.90
23124;DHT22;11731;48.592;8.858;2022-12-10T05:11:33;4.60;99.90
23124;DHT22;11731;48.592;8.858;2022-12-10T05:14:02;4.70;99.90
23124;DHT22;11731;48.592;8.858;2022-12-10T05:16:30;4.70;99.90
23124;DHT22;11731;48.592;8.858;2022-12-10T05:18:58;4.40;99.90
23124;DHT22;11731;48.592;8.858;2022-12-10T05:21:27;4.50;99.90
23124;DHT22;11731;48.592;8.858;2022-12-10T05:24:16;4.30;99.90
23124;DHT22;11731;48.592;8.858;2022-12-10T05:26:43;3.90;99.90
23124;DHT22;11731;48.592;8.858;2022-12-10T05:29:12;3.70;99.90
23124;DHT22;11731;48.592;8.858;2022-12-10T05:31:39;3.50;99.90
23124;DHT22;11731;48.592;8.858;2022-12-10T05:34:06;3.70;99.90
23124;DHT22;11731;48.592;8.858;2022-12-10T05:36:34;3.10;99.90
23124;DHT22;11731;48.592;8.858;2022-12-10T05:39:01;3.40;99.90
23124;DHT22;11731;48.592;8.858;2022-12-10T05:41:31;3.20;99.90
23124;DHT22;11731;48.592;8.858;2022-12-10T05:44:00;3.20;99.90
23124;DHT22;11731;48.592;8.858;2022-12-10T05:46:29;3.10;99.90
23124;DHT22;11731;48.592;8.858;2022-12-10T05:48:58;3.20;99.90
23124;DHT22;11731;48.592;8.858;2022-12-10T05:51:28;3.10;99.90
23124;DHT22;11731;48.592;8.858;2022-12-10T05:53:56;3.20;99.90
23124;DHT22;11731;48.592;8.858;2022-12-10T05:56:25;3.30;99.90
23124;DHT22;11731;48.592;8.858;2022-12-10T05:58:59;3.40;99.90
23124;DHT22;11731;48.592;8.858;2022-12-10T06:01:30;3.00;99.90
23124;DHT22;11731;48.592;8.858;2022-12-10T06:03:57;2.90;99.90
23124;DHT22;11731;48.592;8.858;2022-12-10T06:06:26;2.90;99.90
23124;DHT22;11731;48.592;8.858;2022-12-10T06:08:54;3.00;99.90
23124;DHT22;11731;48.592;8.858;2022-12-10T06:11:21;3.00;99.90
23124;DHT22;11731;48.592;8.858;2022-12-10T06:13:48;3.00;99.90
23124;DHT22;11731;48.592;8.858;2022-12-10T06:16:15;3.00;99.90
23124;DHT22;11731;48.592;8.858;2022-12-10T06:18:44;3.10;99.90
23124;DHT22;11731;48.592;8.858;2022-12-10T06:21:12;3.10;99.90
23124;DHT22;11731;48.592;8.858;2022-12-10T06:23:40;3.10;99.90
23124;DHT22;11731;48.592;8.858;2022-12-10T06:26:09;3.50;99.90
23124;DHT22;11731;48.592;8.858;2022-12-10T06:28:36;3.40;99.90
23124;DHT22;11731;48.592;8.858;2022-12-10T06:31:04;3.20;99.90
23124;DHT22;11731;48.592;8.858;2022-12-10T06:33:31;3.10;99.90
23124;DHT22;11731;48.592;8.858;2022-12-10T06:35:59;3.10;99.90
23124;DHT22;11731;48.592;8.858;2022-12-10T06:38:29;3.30;99.90
23124;DHT22;11731;48.592;8.858;2022-12-10T06:40:56;3.30;99.90
23124;DHT22;11731;48.592;8.858;2022-12-10T06:43:22;3.10;99.90
23124;DHT22;11731;48.592;8.858;2022-12-10T06:45:49;2.90;99.90
23124;DHT22;11731;48.592;8.858;2022-12-10T06:48:16;2.80;99.90
23124;DHT22;11731;48.592;8.858;2022-12-10T06:50:43;2.80;99.90
23124;DHT22;11731;48.592;8.858;2022-12-10T06:53:11;2.60;99.90
23124;DHT22;11731;48.592;8.858;2022-12-10T06:55:38;2.60;99.90
23124;DHT22;11731;48.592;8.858;2022-12-10T06:58:05;2.60;99.90
23124;DHT22;11731;48.592;8.858;2022-12-10T07:00:32;2.50;99.90
23124;DHT22;11731;48.592;8.858;2022-12-10T07:02:59;2.60;99.90
23124;DHT22;11731;48.592;8.858;2022-12-10T07:05:25;2.50;99.90
23124;DHT22;11731;48.592;8.858;2022-12-10T07:07:52;2.70;99.90
23124;DHT22;11731;48.592;8.858;2022-12-10T07:10:21;2.60;99.90
23124;DHT22;11731;48.592;8.858;2022-12-10T07:12:48;2.20;99.90
23124;DHT22;11731;48.592;8.858;2022-12-10T07:15:15;2.20;99.90
23124;DHT22;11731;48.592;8.858;2022-12-10T07:17:42;2.50;99.90
23124;DHT22;11731;48.592;8.858;2022-12-10T07:20:09;2.10;99.90
23124;DHT22;11731;48.592;8.858;2022-12-10T07:22:37;2.10;99.90
23124;DHT22;11731;48.592;8.858;2022-12-10T07:25:04;2.00;99.90
23124;DHT22;11731;48.592;8.858;2022-12-10T07:27:33;2.00;99.90
23124;DHT22;11731;48.592;8.858;2022-12-10T07:29:59;1.70;99.90
23124;DHT22;11731;48.592;8.858;2022-12-10T07:32:26;1.80;99.90
23124;DHT22;11731;48.592;8.858;2022-12-10T07:34:53;2.10;99.90
23124;DHT22;11731;48.592;8.858;2022-12-10T07:37:20;2.20;99.90
23124;DHT22;11731;48.592;8.858;2022-12-10T07:39:47;2.10;99.90
23124;DHT22;11731;48.592;8.858;2022-12-10T07:42:14;2.20;99.90
23124;DHT22;11731;48.592;8.858;2022-12-10T07:44:42;2.40;99.90
23124;DHT22;11731;48.592;8.858;2022-12-10T07:47:10;2.30;99.90
23124;DHT22;11731;48.592;8.858;2022-12-10T07:49:36;2.30;99.90
23124;DHT22;11731;48.592;8.858;2022-12-10T07:52:04;2.60;99.90
23124;DHT22;11731;48.592;8.858;2022-12-10T07:54:30;2.70;99.90
23124;DHT22;11731;48.592;8.858;2022-12-10T07:56:57;2.60;99.90
23124;DHT22;11731;48.592;8.858;2022-12-10T07:59:24;2.50;99.90
23124;DHT22;11731;48.592;8.858;2022-12-10T08:01:52;2.40;99.90
23124;DHT22;11731;48.592;8.858;2022-12-10T08:04:20;2.50;99.90
23124;DHT22;11731;48.592;8.858;2022-12-10T08:06:54;2.50;99.90
23124;DHT22;11731;48.592;8.858;2022-12-10T08:09:21;2.80;99.90
23124;DHT22;11731;48.592;8.858;2022-12-10T08:11:47;2.60;99.90
23124;DHT22;11731;48.592;8.858;2022-12-10T08:14:14;2.60;99.90
23124;DHT22;11731;48.592;8.858;2022-12-10T08:16:41;2.80;99.90
23124;DHT22;11731;48.592;8.858;2022-12-10T08:19:10;2.80;99.90
23124;DHT22;11731;48.592;8.858;2022-12-10T08:21:36;2.80;99.90
23124;DHT22;11731;48.592;8.858;2022-12-10T08:24:04;2.90;99.90
23124;DHT22;11731;48.592;8.858;2022-12-10T08:26:32;3.30;99.90
23124;DHT22;11731;48.592;8.858;2022-12-10T08:29:00;3.40;99.90
23124;DHT22;11731;48.592;8.858;2022-12-10T08:31:27;3.10;99.90
23124;DHT22;11731;48.592;8.858;2022-12-10T08:33:54;3.50;99.90
23124;DHT22;11731;48.592;8.858;2022-12-10T08:36:22;3.70;99.90
23124;DHT22;11731;48.592;8.858;2022-12-10T08:38:49;3.90;99.90
23124;DHT22;11731;48.592;8.858;2022-12-10T08:41:18;4.10;99.90
23124;DHT22;11731;48.592;8.858;2022-12-10T08:43:45;4.10;99.90
23124;DHT22;11731;48.592;8.858;2022-12-10T08:46:14;3.80;99.90
23124;DHT22;11731;48.592;8.858;2022-12-10T08:48:41;3.80;99.90
23124;DHT22;11731;48.592;8.858;2022-12-10T08:51:10;4.00;99.90
23124;DHT22;11731;48.592;8.858;2022-12-10T08:53:39;4.10;99.90
23124;DHT22;11731;48.592;8.858;2022-12-10T08:56:06;4.20;99.90
23124;DHT22;11731;48.592;8.858;2022-12-10T08:58:33;4.50;99.90
23124;DHT22;11731;48.592;8.858;2022-12-10T09:01:05;4.90;99.90
23124;DHT22;11731;48.592;8.858;2022-12-10T09:03:32;4.80;99.90
23124;DHT22;11731;48.592;8.858;2022-12-10T09:06:02;4.80;99.90
23124;DHT22;11731;48.592;8.858;2022-12-10T09:08:29;4.60;99.90
23124;DHT22;11731;48.592;8.858;2022-12-10T09:10:58;5.10;99.90
23124;DHT22;11731;48.592;8.858;2022-12-10T09:13:24;4.90;99.90
23124;DHT22;11731;48.592;8.858;2022-12-10T09:15:52;5.10;99.90
23124;DHT22;11731;48.592;8.858;2022-12-10T09:18:19;4.90;99.90
23124;DHT22;11731;48.592;8.858;2022-12-10T09:20:46;4.60;99.90
23124;DHT22;11731;48.592;8.858;2022-12-10T09:23:13;4.50;99.90
23124;DHT22;11731;48.592;8.858;2022-12-10T09:25:39;4.50;99.90
23124;DHT22;11731;48.592;8.858;2022-12-10T09:28:08;4.20;99.90
23124;DHT22;11731;48.592;8.858;2022-12-10T09:30:35;4.00;99.90
23124;DHT22;11731;48.592;8.858;2022-12-10T09:33:01;3.90;99.90
23124;DHT22;11731;48.592;8.858;2022-12-10T09:35:28;3.90;99.90
23124;DHT22;11731;48.592;8.858;2022-12-10T09:37:56;4.00;99.90
23124;DHT22;11731;48.592;8.858;2022-12-10T09:40:29;3.60;99.90
23124;DHT22;11731;48.592;8.858;2022-12-10T09:43:01;3.40;99.90
23124;DHT22;11731;48.592;8.858;2022-12-10T09:45:38;3.50;99.90
23124;DHT22;11731;48.592;8.858;2022-12-10T09:48:15;3.70;99.90
23124;DHT22;11731;48.592;8.858;2022-12-10T09:50:51;3.50;99.90
23124;DHT22;11731;48.592;8.858;2022-12-10T09:53:21;3.70;99.90
23124;DHT22;11731;48.592;8.858;2022-12-10T09:55:49;3.50;99.90
23124;DHT22;11731;48.592;8.858;2022-12-10T09:58:18;3.40;99.90
23124;DHT22;11731;48.592;8.858;2022-12-10T10:00:49;3.60;99.90
23124;DHT22;11731;48.592;8.858;2022-12-10T10:03:17;3.60;99.90
23124;DHT22;11731;48.592;8.858;2022-12-10T10:05:47;3.50;99.90
23124;DHT22;11731;48.592;8.858;2022-12-10T10:08:28;3.60;99.90
23124;DHT22;11731;48.592;8.858;2022-12-10T10:10:56;3.40;99.90
23124;DHT22;11731;48.592;8.858;2022-12-10T10:13:30;3.50;99.90
23124;DHT22;11731;48.592;8.858;2022-12-10T10:16:11;3.80;99.90
23124;DHT22;11731;48.592;8.858;2022-12-10T10:18:41;3.80;99.90
23124;DHT22;11731;48.592;8.858;2022-12-10T10:21:15;3.80;99.90
23124;DHT22;11731;48.592;8.858;2022-12-10T10:23:45;4.30;99.90
23124;DHT22;11731;48.592;8.858;2022-12-10T10:26:12;4.20;99.90
23124;DHT22;11731;48.592;8.858;2022-12-10T10:28:40;4.10;99.90
23124;DHT22;11731;48.592;8.858;2022-12-10T10:31:18;4.10;99.90
23124;DHT22;11731;48.592;8.858;2022-12-10T10:33:48;4.10;99.90
23124;DHT22;11731;48.592;8.858;2022-12-10T10:36:23;4.00;99.90
23124;DHT22;11731;48.592;8.858;2022-12-10T10:38:50;4.00;99.90
23124;DHT22;11731;48.592;8.858;2022-12-10T10:41:17;4.10;99.90
23124;DHT22;11731;48.592;8.858;2022-12-10T10:43:44;4.00;99.90
23124;DHT22;11731;48.592;8.858;2022-12-10T10:46:15;4.60;99.90
23124;DHT22;11731;48.592;8.858;2022-12-10T10:48:43;4.70;99.90
23124;DHT22;11731;48.592;8.858;2022-12-10T10:51:17;4.90;99.90
23124;DHT22;11731;48.592;8.858;2022-12-10T10:53:47;4.80;99.90
23124;DHT22;11731;48.592;8.858;2022-12-10T10:56:19;4.90;99.90
23124;DHT22;11731;48.592;8.858;2022-12-10T10:58:54;4.80;99.90
23124;DHT22;11731;48.592;8.858;2022-12-10T11:01:24;5.00;99.90
23124;DHT22;11731;48.592;8.858;2022-12-10T11:03:55;5.00;99.90
23124;DHT22;11731;48.592;8.858;2022-12-10T11:06:22;5.20;99.90
23124;DHT22;11731;48.592;8.858;2022-12-10T11:08:51;5.30;99.90
23124;DHT22;11731;48.592;8.858;2022-12-10T11:11:22;5.70;99.90
23124;DHT22;11731;48.592;8.858;2022-12-10T11:13:50;5.20;99.90
23124;DHT22;11731;48.592;8.858;2022-12-10T11:20:22;5.10;99.90
23124;DHT22;11731;48.592;8.858;2022-12-10T11:23:16;4.90;99.90
23124;DHT22;11731;48.592;8.858;2022-12-10T11:26:20;4.40;99.90
23124;DHT22;11731;48.592;8.858;2022-12-10T11:29:21;4.80;99.90
23124;DHT22;11731;48.592;8.858;2022-12-10T11:32:16;4.80;99.90
23124;DHT22;11731;48.592;8.858;2022-12-10T11:35:01;4.70;99.90
23124;DHT22;11731;48.592;8.858;2022-12-10T11:37:33;5.00;99.90
23124;DHT22;11731;48.592;8.858;2022-12-10T11:40:14;5.20;99.90
23124;DHT22;11731;48.592;8.858;2022-12-10T11:42:53;5.30;99.90
23124;DHT22;11731;48.592;8.858;2022-12-10T11:45:29;5.20;99.90
23124;DHT22;11731;48.592;8.858;2022-12-10T11:48:10;4.90;99.90
23124;DHT22;11731;48.592;8.858;2022-12-10T11:50:44;5.10;99.90
23124;DHT22;11731;48.592;8.858;2022-12-10T11:53:39;5.20;99.90
23124;DHT22;11731;48.592;8.858;2022-12-10T11:56:13;5.20;99.90
23124;DHT22;11731;48.592;8.858;2022-12-10T11:58:58;5.00;99.90
23124;DHT22;11731;48.592;8.858;2022-12-10T12:01:47;4.80;99.90
23124;DHT22;11731;48.592;8.858;2022-12-10T12:04:43;4.70;99.90
23124;DHT22;11731;48.592;8.858;2022-12-10T12:07:31;4.90;99.90
23124;DHT22;11731;48.592;8.858;2022-12-10T12:10:21;4.90;99.90
23124;DHT22;11731;48.592;8.858;2022-12-10T12:12:57;5.10;99.90
23124;DHT22;11731;48.592;8.858;2022-12-10T12:15:29;5.10;99.90
23124;DHT22;11731;48.592;8.858;2022-12-10T12:18:00;4.90;99.90
23124;DHT22;11731;48.592;8.858;2022-12-10T12:20:32;4.50;99.90
23124;DHT22;11731;48.592;8.858;2022-12-10T12:23:06;4.40;99.90
23124;DHT22;11731;48.592;8.858;2022-12-10T12:25:41;4.70;99.90
23124;DHT22;11731;48.592;8.858;2022-12-10T12:28:13;5.00;99.90
23124;DHT22;11731;48.592;8.858;2022-12-10T12:30:42;5.10;99.90
23124;DHT22;11731;48.592;8.858;2022-12-10T12:33:13;4.90;99.90
23124;DHT22;11731;48.592;8.858;2022-12-10T12:35:46;5.10;99.90
23124;DHT22;11731;48.592;8.858;2022-12-10T12:38:30;5.00;99.90
23124;DHT22;11731;48.592;8.858;2022-12-10T12:44:14;5.60;99.60
23124;DHT22;11731;48.592;8.858;2022-12-10T12:46:45;5.60;99.60
23124;DHT22;11731;48.592;8.858;2022-12-10T12:49:18;6.10;99.40
23124;DHT22;11731;48.592;8.858;2022-12-10T12:51:51;6.50;98.80
23124;DHT22;11731;48.592;8.858;2022-12-10T12:54:19;6.10;98.10
23124;DHT22;11731;48.592;8.858;2022-12-10T12:56:59;6.00;98.30
23124;DHT22;11731;48.592;8.858;2022-12-10T12:59:49;5.90;98.70
23124;DHT22;11731;48.592;8.858;2022-12-10T13:02:26;5.90;99.10
23124;DHT22;11731;48.592;8.858;2022-12-10T13:04:59;5.90;99.70
23124;DHT22;11731;48.592;8.858;2022-12-10T13:07:32;5.80;98.90
23124;DHT22;11731;48.592;8.858;2022-12-10T13:10:24;5.50;99.00
23124;DHT22;11731;48.592;8.858;2022-12-10T13:13:06;5.10;99.20
23124;DHT22;11731;48.592;8.858;2022-12-10T13:15:36;4.80;99.90
23124;DHT22;11731;48.592;8.858;2022-12-10T13:23:47;3.60;99.90
23124;DHT22;11731;48.592;8.858;2022-12-10T13:26:23;3.50;99.90
23124;DHT22;11731;48.592;8.858;2022-12-10T13:28:52;3.50;99.90
23124;DHT22;11731;48.592;8.858;2022-12-10T13:31:34;3.80;99.90
23124;DHT22;11731;48.592;8.858;2022-12-10T13:34:32;4.00;99.90
23124;DHT22;11731;48.592;8.858;2022-12-10T13:40:22;3.60;99.90
23124;DHT22;11731;48.592;8.858;2022-12-10T13:42:57;3.40;99.90
23124;DHT22;11731;48.592;8.858;2022-12-10T13:45:41;3.00;99.90
23124;DHT22;11731;48.592;8.858;2022-12-10T13:48:29;3.20;99.90
23124;DHT22;11731;48.592;8.858;2022-12-10T13:54:08;3.40;99.90
23124;DHT22;11731;48.592;8.858;2022-12-10T13:56:44;3.40;99.90
23124;DHT22;11731;48.592;8.858;2022-12-10T13:59:22;3.40;99.90
23124;DHT22;11731;48.592;8.858;2022-12-10T14:02:24;3.40;99.90
23124;DHT22;11731;48.592;8.858;2022-12-10T14:07:56;3.20;99.90
23124;DHT22;11731;48.592;8.858;2022-12-10T14:10:29;2.90;99.90
23124;DHT22;11731;48.592;8.858;2022-12-10T14:13:16;2.50;99.90
23124;DHT22;11731;48.592;8.858;2022-12-10T14:15:52;2.50;99.90
23124;DHT22;11731;48.592;8.858;2022-12-10T14:18:21;2.40;99.90
23124;DHT22;11731;48.592;8.858;2022-12-10T14:20:52;2.80;99.90
23124;DHT22;11731;48.592;8.858;2022-12-10T14:23:23;2.80;99.90
23124;DHT22;11731;48.592;8.858;2022-12-10T14:26:04;2.90;99.90
23124;DHT22;11731;48.592;8.858;2022-12-10T14:28:39;3.10;99.90
23124;DHT22;11731;48.592;8.858;2022-12-10T14:31:10;3.00;99.90
23124;DHT22;11731;48.592;8.858;2022-12-10T14:33:39;2.90;99.90
23124;DHT22;11731;48.592;8.858;2022-12-10T14:36:16;2.90;99.90
23124;DHT22;11731;48.592;8.858;2022-12-10T14:38:46;2.90;99.90
23124;DHT22;11731;48.592;8.858;2022-12-10T14:41:17;3.00;99.90
23124;DHT22;11731;48.592;8.858;2022-12-10T14:43:45;3.00;99.90
23124;DHT22;11731;48.592;8.858;2022-12-10T14:46:14;3.30;99.90
23124;DHT22;11731;48.592;8.858;2022-12-10T14:48:42;3.30;99.90
23124;DHT22;11731;48.592;8.858;2022-12-10T14:51:16;3.10;99.90
23124;DHT22;11731;48.592;8.858;2022-12-10T14:53:55;2.80;99.90
23124;DHT22;11731;48.592;8.858;2022-12-10T14:56:26;2.40;99.90
23124;DHT22;11731;48.592;8.858;2022-12-10T14:59:03;2.30;99.90
23124;DHT22;11731;48.592;8.858;2022-12-10T15:01:33;2.40;99.90
23124;DHT22;11731;48.592;8.858;2022-12-10T15:04:03;2.40;99.90
23124;DHT22;11731;48.592;8.858;2022-12-10T15:06:35;2.10;99.90
23124;DHT22;11731;48.592;8.858;2022-12-10T15:09:05;2.50;99.90
23124;DHT22;11731;48.592;8.858;2022-12-10T15:11:32;2.50;99.90
23124;DHT22;11731;48.592;8.858;2022-12-10T15:14:01;2.30;99.90
23124;DHT22;11731;48.592;8.858;2022-12-10T15:16:31;2.30;99.90
23124;DHT22;11731;48.592;8.858;2022-12-10T15:19:13;2.50;99.90
23124;DHT22;11731;48.592;8.858;2022-12-10T15:21:45;2.80;99.90
23124;DHT22;11731;48.592;8.858;2022-12-10T15:24:19;2.70;99.90
23124;DHT22;11731;48.592;8.858;2022-12-10T15:26:47;2.70;99.90
23124;DHT22;11731;48.592;8.858;2022-12-10T15:29:34;2.80;99.90
23124;DHT22;11731;48.592;8.858;2022-12-10T15:32:05;2.10;99.90
23124;DHT22;11731;48.592;8.858;2022-12-10T15:34:41;2.10;99.90
23124;DHT22;11731;48.592;8.858;2022-12-10T15:37:20;2.40;99.90
23124;DHT22;11731;48.592;8.858;2022-12-10T15:39:50;2.70;99.90
23124;DHT22;11731;48.592;8.858;2022-12-10T15:42:37;3.00;99.90
23124;DHT22;11731;48.592;8.858;2022-12-10T15:45:21;3.10;99.90
23124;DHT22;11731;48.592;8.858;2022-12-10T15:47:48;2.90;99.90
23124;DHT22;11731;48.592;8.858;2022-12-10T15:50:15;3.00;99.90
23124;DHT22;11731;48.592;8.858;2022-12-10T15:52:44;3.20;99.90
23124;DHT22;11731;48.592;8.858;2022-12-10T15:55:12;3.20;99.90
23124;DHT22;11731;48.592;8.858;2022-12-10T15:57:40;2.90;99.90
23124;DHT22;11731;48.592;8.858;2022-12-10T16:00:17;2.60;99.90
23124;DHT22;11731;48.592;8.858;2022-12-10T16:02:46;2.40;99.90
23124;DHT22;11731;48.592;8.858;2022-12-10T16:05:16;2.50;99.90
23124;DHT22;11731;48.592;8.858;2022-12-10T16:07:46;2.70;99.90
23124;DHT22;11731;48.592;8.858;2022-12-10T16:10:16;3.00;99.90
23124;DHT22;11731;48.592;8.858;2022-12-10T16:12:43;2.70;99.90
23124;DHT22;11731;48.592;8.858;2022-12-10T16:15:16;2.30;99.90
23124;DHT22;11731;48.592;8.858;2022-12-10T16:17:44;2.40;99.90
23124;DHT22;11731;48.592;8.858;2022-12-10T16:20:22;2.60;99.90
23124;DHT22;11731;48.592;8.858;2022-12-10T16:22:52;2.50;99.90
23124;DHT22;11731;48.592;8.858;2022-12-10T16:25:21;2.70;99.90
23124;DHT22;11731;48.592;8.858;2022-12-10T16:30:18;2.90;99.90
23124;DHT22;11731;48.592;8.858;2022-12-10T16:32:48;2.50;99.90
23124;DHT22;11731;48.592;8.858;2022-12-10T16:35:15;2.40;99.90
23124;DHT22;11731;48.592;8.858;2022-12-10T16:37:43;2.10;99.90
23124;DHT22;11731;48.592;8.858;2022-12-10T16:40:12;1.60;99.90
23124;DHT22;11731;48.592;8.858;2022-12-10T16:42:39;1.60;99.90
23124;DHT22;11731;48.592;8.858;2022-12-10T16:45:15;1.80;99.90
23124;DHT22;11731;48.592;8.858;2022-12-10T16:47:43;1.80;99.90
23124;DHT22;11731;48.592;8.858;2022-12-10T16:50:10;1.80;99.90
23124;DHT22;11731;48.592;8.858;2022-12-10T16:52:37;1.60;99.90
23124;DHT22;11731;48.592;8.858;2022-12-10T16:55:05;2.20;99.90
23124;DHT22;11731;48.592;8.858;2022-12-10T16:57:34;2.30;99.90
23124;DHT22;11731;48.592;8.858;2022-12-10T17:00:01;2.50;99.90
23124;DHT22;11731;48.592;8.858;2022-12-10T17:02:29;2.50;99.90
23124;DHT22;11731;48.592;8.858;2022-12-10T17:05:01;2.50;99.90
23124;DHT22;11731;48.592;8.858;2022-12-10T17:07:30;2.60;99.90
23124;DHT22;11731;48.592;8.858;2022-12-10T17:09:57;2.30;99.90
23124;DHT22;11731;48.592;8.858;2022-12-10T17:12:24;2.40;99.90
23124;DHT22;11731;48.592;8.858;2022-12-10T17:15:46;2.50;99.90
23124;DHT22;11731;48.592;8.858;2022-12-10T17:18:09;2.60;99.90
23124;DHT22;11731;48.592;8.858;2022-12-10T17:20:38;2.40;99.90